createdAt,value
2023-04-08T00:00:19.140Z,13.60
2023-04-08T00:03:08.285Z,11.80
2023-04-08T00:05:37.204Z,13.50
2023-04-08T00:08:06.894Z,16.10
2023-04-08T00:10:35.474Z,12.50
2023-04-08T00:13:04.588Z,14.10
2023-04-08T00:15:33.264Z,14.90
2023-04-08T00:18:02.525Z,13.90
2023-04-08T00:20:31.884Z,14.60
2023-04-08T00:23:01.686Z,13.20
2023-04-08T00:25:31.299Z,14.30
2023-04-08T00:27:59.881Z,14.70
2023-04-08T00:30:29.793Z,15.50
2023-04-08T00:32:58.841Z,17.60
2023-04-08T00:35:27.691Z,17.30
2023-04-08T00:37:56.457Z,14.40
2023-04-08T00:40:25.344Z,16.00
2023-04-08T00:42:54.147Z,15.50
2023-04-08T00:45:23.122Z,16.00
2023-04-08T00:47:53.177Z,15.30
2023-04-08T00:50:22.028Z,16.50
2023-04-08T00:52:51.053Z,16.60
2023-04-08T00:55:19.724Z,16.10
2023-04-08T00:57:49.332Z,17.70
2023-04-08T01:00:18.219Z,18.00
2023-04-08T01:03:10.615Z,18.70
2023-04-08T01:05:57.695Z,18.10
2023-04-08T01:08:28.300Z,20.70
2023-04-08T01:11:00.134Z,17.70
2023-04-08T01:13:31.812Z,18.70
2023-04-08T01:16:00.633Z,20.90
2023-04-08T01:18:30.160Z,19.60
2023-04-08T01:21:00.009Z,19.00
2023-04-08T01:23:55.340Z,20.50
2023-04-08T01:26:27.096Z,19.00
2023-04-08T01:28:58.319Z,18.90
2023-04-08T01:31:27.923Z,19.20
2023-04-08T01:33:57.088Z,18.70
2023-04-08T01:36:26.972Z,22.60
2023-04-08T01:38:55.835Z,20.30
2023-04-08T01:41:24.720Z,23.90
2023-04-08T01:43:54.894Z,19.70
2023-04-08T01:46:23.516Z,22.20
2023-04-08T01:48:53.266Z,22.00
2023-04-08T01:51:23.148Z,24.00
2023-04-08T01:53:52.171Z,24.70
2023-04-08T01:56:22.869Z,22.90
2023-04-08T01:58:53.824Z,21.90
2023-04-08T02:01:23.965Z,23.60
2023-04-08T02:03:56.700Z,23.40
2023-04-08T02:06:28.137Z,23.20
2023-04-08T02:08:56.884Z,25.10
2023-04-08T02:11:26.590Z,28.70
2023-04-08T02:13:55.990Z,28.40
2023-04-08T02:16:30.490Z,29.60
2023-04-08T02:19:14.587Z,24.60
2023-04-08T02:21:53.598Z,21.50
2023-04-08T02:24:23.013Z,22.90
2023-04-08T02:26:52.592Z,23.20
2023-04-08T02:29:22.385Z,27.90
2023-04-08T02:31:54.062Z,23.30
2023-04-08T02:34:23.027Z,21.90
2023-04-08T02:36:52.648Z,25.30
2023-04-08T02:39:21.524Z,22.70
2023-04-08T02:41:51.257Z,22.90
2023-04-08T02:44:20.150Z,23.90
2023-04-08T02:46:49.017Z,20.40
2023-04-08T02:49:17.706Z,22.60
2023-04-08T02:51:46.534Z,21.20
2023-04-08T02:54:16.291Z,23.20
2023-04-08T02:56:45.207Z,19.70
2023-04-08T02:59:14.089Z,21.80
2023-04-08T03:01:43.503Z,22.30
2023-04-08T03:04:12.188Z,23.30
2023-04-08T03:06:40.975Z,20.70
2023-04-08T03:09:09.982Z,20.40
2023-04-08T03:11:38.753Z,21.40
2023-04-08T03:14:07.445Z,19.30
2023-04-08T03:16:37.178Z,18.40
2023-04-08T03:19:05.823Z,20.40
2023-04-08T03:21:34.506Z,17.10
2023-04-08T03:24:03.176Z,19.60
2023-04-08T03:26:31.880Z,17.20
2023-04-08T03:29:00.765Z,19.60
2023-04-08T03:31:29.798Z,16.70
2023-04-08T03:33:58.447Z,19.00
2023-04-08T03:36:27.347Z,20.40
2023-04-08T03:38:57.139Z,18.70
2023-04-08T03:41:26.046Z,18.70
2023-04-08T03:43:54.512Z,17.50
2023-04-08T03:46:23.385Z,21.70
2023-04-08T03:48:52.185Z,22.50
2023-04-08T03:51:21.309Z,20.10
2023-04-08T03:53:51.401Z,23.00
2023-04-08T03:56:20.029Z,20.40
2023-04-08T03:58:49.226Z,15.40
2023-04-08T04:01:18.172Z,17.30
2023-04-08T04:03:47.146Z,16.50
2023-04-08T04:06:16.013Z,19.30
2023-04-08T04:08:45.978Z,17.00
2023-04-08T04:11:14.663Z,16.30
2023-04-08T04:13:44.290Z,19.80
2023-04-08T04:16:13.015Z,16.90
2023-04-08T04:18:41.750Z,19.80
2023-04-08T04:21:10.659Z,17.10
2023-04-08T04:23:39.212Z,17.70
2023-04-08T04:26:11.183Z,17.90
2023-04-08T04:28:40.686Z,19.60
2023-04-08T04:31:09.209Z,17.90
2023-04-08T04:33:38.051Z,18.30
2023-04-08T04:36:07.684Z,16.90
2023-04-08T04:38:37.583Z,17.30
2023-04-08T04:41:06.390Z,18.90
2023-04-08T04:43:35.682Z,17.80
2023-04-08T04:46:07.534Z,16.50
2023-04-08T04:48:36.468Z,20.80
2023-04-08T04:51:05.386Z,18.70
2023-04-08T04:53:34.101Z,18.90
2023-04-08T04:56:03.002Z,17.90
2023-04-08T04:58:32.280Z,18.80
2023-04-08T05:01:01.186Z,20.30
2023-04-08T05:03:29.769Z,17.80
2023-04-08T05:05:58.569Z,21.50
2023-04-08T05:08:28.486Z,16.80
2023-04-08T05:10:57.277Z,19.30
2023-04-08T05:13:26.048Z,20.20
2023-04-08T05:15:55.264Z,19.70
2023-04-08T05:18:23.829Z,20.30
2023-04-08T05:20:52.718Z,18.40
2023-04-08T05:23:21.699Z,19.30
2023-04-08T05:25:50.408Z,20.60
2023-04-08T05:28:19.272Z,21.40
2023-04-08T05:30:51.858Z,21.40
2023-04-08T05:33:21.586Z,25.60
2023-04-08T05:35:50.215Z,22.60
2023-04-08T05:38:19.147Z,19.20
2023-04-08T05:40:47.719Z,23.10
2023-04-08T05:43:16.624Z,20.60
2023-04-08T05:45:45.515Z,23.00
2023-04-08T05:48:14.423Z,18.60
2023-04-08T05:50:43.807Z,20.90
2023-04-08T05:53:12.698Z,16.30
2023-04-08T05:55:41.781Z,22.80
2023-04-08T05:58:11.491Z,20.70
2023-04-08T06:00:40.194Z,18.50
2023-04-08T06:03:09.209Z,17.90
2023-04-08T06:05:38.149Z,22.70
2023-04-08T06:08:07.477Z,21.30
2023-04-08T06:10:36.564Z,18.30
2023-04-08T06:13:05.249Z,17.70
2023-04-08T06:15:34.030Z,20.00
2023-04-08T06:18:02.764Z,21.60
2023-04-08T06:20:31.804Z,19.20
2023-04-08T06:23:00.384Z,19.90
2023-04-08T06:25:29.203Z,17.30
2023-04-08T06:27:57.967Z,20.60
2023-04-08T06:30:26.963Z,17.60
2023-04-08T06:32:55.958Z,18.50
2023-04-08T06:35:25.425Z,19.50
2023-04-08T06:37:54.042Z,20.30
2023-04-08T06:40:23.054Z,12.70
2023-04-08T06:42:51.903Z,17.10
2023-04-08T06:45:24.293Z,19.30
2023-04-08T06:47:53.265Z,20.30
2023-04-08T06:50:22.096Z,18.10
2023-04-08T06:52:50.942Z,18.60
2023-04-08T06:55:20.047Z,18.20
2023-04-08T06:57:49.047Z,20.10
2023-04-08T07:00:18.032Z,17.40
2023-04-08T07:02:47.780Z,15.00
2023-04-08T07:05:17.168Z,17.60
2023-04-08T07:07:45.937Z,15.10
2023-04-08T07:10:14.621Z,15.40
2023-04-08T07:12:43.423Z,15.50
2023-04-08T07:15:12.428Z,19.80
2023-04-08T07:17:41.142Z,16.20
2023-04-08T07:20:11.092Z,20.40
2023-04-08T07:22:40.193Z,17.10
2023-04-08T07:25:09.964Z,16.00
2023-04-08T07:27:38.610Z,19.10
2023-04-08T07:30:08.264Z,17.10
2023-04-08T07:32:37.796Z,17.00
2023-04-08T07:35:07.010Z,15.70
2023-04-08T07:37:36.227Z,15.40
2023-04-08T07:40:05.801Z,16.00
2023-04-08T07:42:35.547Z,19.70
2023-04-08T07:45:04.624Z,19.50
2023-04-08T07:47:33.626Z,20.10
2023-04-08T07:50:02.410Z,18.30
2023-04-08T07:52:31.741Z,20.90
2023-04-08T07:55:00.896Z,15.80
2023-04-08T07:57:29.703Z,16.30
2023-04-08T07:59:58.903Z,14.00
2023-04-08T08:02:27.746Z,15.50
2023-04-08T08:04:56.991Z,15.80
2023-04-08T08:07:26.054Z,15.80
2023-04-08T08:09:54.640Z,14.00
2023-04-08T08:12:23.332Z,12.80
2023-04-08T08:14:55.307Z,15.70
2023-04-08T08:17:25.043Z,15.50
2023-04-08T08:19:54.946Z,14.40
2023-04-08T08:22:23.947Z,14.20
2023-04-08T08:24:58.864Z,12.30
2023-04-08T08:27:27.524Z,15.60
2023-04-08T08:29:57.599Z,15.00
2023-04-08T08:32:26.279Z,14.70
2023-04-08T08:34:55.024Z,16.10
2023-04-08T08:37:24.027Z,16.50
2023-04-08T08:39:52.806Z,16.90
2023-04-08T08:42:23.128Z,15.20
2023-04-08T08:44:51.757Z,13.70
2023-04-08T08:47:20.848Z,14.90
2023-04-08T08:49:49.905Z,15.60
2023-04-08T08:52:19.229Z,15.30
2023-04-08T08:54:50.071Z,15.80
2023-04-08T08:57:20.809Z,14.40
2023-04-08T08:59:49.935Z,16.60
2023-04-08T09:02:30.874Z,17.80
2023-04-08T09:05:04.790Z,13.20
2023-04-08T09:07:37.504Z,15.10
2023-04-08T09:10:07.426Z,15.20
2023-04-08T09:12:55.047Z,16.00
2023-04-08T09:15:23.770Z,15.20
2023-04-08T09:17:53.328Z,13.90
2023-04-08T09:20:22.277Z,14.70
2023-04-08T09:23:02.050Z,14.40
2023-04-08T09:25:33.686Z,13.70
2023-04-08T09:28:03.587Z,14.90
2023-04-08T09:30:33.518Z,13.50
2023-04-08T09:33:07.868Z,13.10
2023-04-08T09:35:37.478Z,16.00
2023-04-08T09:38:06.919Z,13.50
2023-04-08T09:40:37.597Z,14.00
2023-04-08T09:43:07.592Z,12.50
2023-04-08T09:45:37.285Z,13.60
2023-04-08T09:48:24.629Z,15.90
2023-04-08T09:50:54.927Z,14.60
2023-04-08T09:53:29.980Z,14.90
2023-04-08T09:56:01.204Z,14.30
2023-04-08T09:58:39.912Z,14.40
2023-04-08T10:01:08.761Z,14.40
2023-04-08T10:03:51.436Z,13.40
2023-04-08T10:06:22.209Z,14.30
2023-04-08T10:08:51.909Z,13.90
2023-04-08T10:11:20.848Z,13.60
2023-04-08T10:13:49.858Z,11.80
2023-04-08T10:16:30.250Z,11.90
2023-04-08T10:18:59.011Z,13.70
2023-04-08T10:21:48.653Z,13.50
2023-04-08T10:24:19.212Z,12.80
2023-04-08T10:26:49.341Z,13.30
2023-04-08T10:29:18.157Z,14.50
2023-04-08T10:31:53.040Z,15.50
2023-04-08T10:34:25.178Z,13.80
2023-04-08T10:36:56.059Z,13.60
2023-04-08T10:39:25.820Z,13.50
2023-04-08T10:41:54.843Z,11.60
2023-04-08T10:44:25.695Z,13.50
2023-04-08T10:46:55.012Z,14.70
2023-04-08T10:49:24.404Z,16.00
2023-04-08T10:51:53.896Z,14.30
2023-04-08T10:54:24.843Z,14.50
2023-04-08T10:56:54.248Z,14.30
2023-04-08T10:59:33.336Z,15.10
2023-04-08T11:02:03.163Z,12.10
2023-04-08T11:04:32.193Z,16.00
2023-04-08T11:07:00.858Z,14.60
2023-04-08T11:09:29.746Z,15.20
2023-04-08T11:11:58.523Z,16.00
2023-04-08T11:14:27.630Z,14.00
2023-04-08T11:16:56.427Z,16.50
2023-04-08T11:19:25.312Z,15.30
2023-04-08T11:21:54.210Z,15.60
2023-04-08T11:24:23.415Z,15.90
2023-04-08T11:26:52.093Z,15.80
2023-04-08T11:29:21.810Z,15.90
2023-04-08T11:31:51.832Z,15.30
2023-04-08T11:34:25.195Z,14.30
2023-04-08T11:36:54.007Z,15.60
2023-04-08T11:39:25.549Z,14.90
2023-04-08T11:41:54.660Z,14.30
2023-04-08T11:44:34.838Z,15.10
2023-04-08T11:47:03.774Z,16.40
2023-04-08T11:49:46.299Z,14.70
2023-04-08T11:52:15.289Z,17.20
2023-04-08T11:54:44.513Z,17.10
2023-04-08T11:57:13.486Z,15.20
2023-04-08T11:59:42.258Z,17.30
2023-04-08T12:02:12.209Z,15.20
2023-04-08T12:04:41.002Z,16.30
2023-04-08T12:07:11.185Z,14.70
2023-04-08T12:09:41.913Z,16.40
2023-04-08T12:12:10.731Z,15.70
2023-04-08T12:14:40.826Z,15.00
2023-04-08T12:17:10.566Z,14.50
2023-04-08T12:19:39.327Z,16.80
2023-04-08T12:22:08.425Z,16.60
2023-04-08T12:24:37.105Z,14.90
2023-04-08T12:27:06.038Z,16.40
2023-04-08T12:29:34.986Z,16.70
2023-04-08T12:32:05.072Z,14.70
2023-04-08T12:34:33.574Z,16.00
2023-04-08T12:37:03.793Z,15.30
2023-04-08T12:39:32.857Z,16.80
2023-04-08T12:42:01.709Z,16.40
2023-04-08T12:44:31.188Z,15.20
2023-04-08T12:46:59.977Z,17.10
2023-04-08T12:49:28.692Z,16.30
2023-04-08T12:51:58.293Z,15.20
2023-04-08T12:54:27.074Z,17.20
2023-04-08T12:56:57.413Z,14.50
2023-04-08T12:59:26.096Z,17.70
2023-04-08T13:01:54.881Z,15.40
2023-04-08T13:04:25.813Z,14.80
2023-04-08T13:06:54.514Z,15.30
2023-04-08T13:09:23.604Z,16.40
2023-04-08T13:11:52.500Z,14.10
2023-04-08T13:14:21.299Z,15.60
2023-04-08T13:16:50.780Z,15.50
2023-04-08T13:19:21.335Z,15.80
2023-04-08T13:21:50.083Z,15.00
2023-04-08T13:24:18.996Z,15.30
2023-04-08T13:26:47.772Z,15.10
2023-04-08T13:29:16.555Z,14.60
2023-04-08T13:31:46.073Z,13.80
2023-04-08T13:34:14.859Z,14.90
2023-04-08T13:36:43.628Z,14.70
2023-04-08T13:39:12.515Z,13.10
2023-04-08T13:41:41.649Z,11.70
2023-04-08T13:44:11.013Z,13.00
2023-04-08T13:46:40.232Z,10.20
2023-04-08T13:49:10.021Z,12.90
2023-04-08T13:51:38.731Z,13.10
2023-04-08T13:54:07.604Z,12.00
2023-04-08T13:56:36.584Z,13.20
2023-04-08T13:59:05.812Z,11.20
2023-04-08T14:01:34.686Z,11.50
2023-04-08T14:04:03.594Z,14.70
2023-04-08T14:06:32.960Z,11.80
2023-04-08T14:09:01.753Z,14.40
2023-04-08T14:11:31.775Z,12.40
2023-04-08T14:14:00.989Z,12.20
2023-04-08T14:16:32.187Z,12.80
2023-04-08T14:19:00.708Z,12.90
2023-04-08T14:21:29.702Z,11.70
2023-04-08T14:23:59.723Z,14.70
2023-04-08T14:26:30.159Z,12.80
2023-04-08T14:29:00.478Z,13.10
2023-04-08T14:31:29.387Z,13.20
2023-04-08T14:34:01.331Z,13.40
2023-04-08T14:36:32.045Z,12.80
2023-04-08T14:39:00.957Z,12.30
2023-04-08T14:41:29.842Z,12.80
2023-04-08T14:43:58.778Z,11.70
2023-04-08T14:46:29.071Z,12.70
2023-04-08T14:48:59.174Z,14.00
2023-04-08T14:51:29.182Z,14.60
2023-04-08T14:53:59.307Z,15.60
2023-04-08T14:56:28.083Z,13.70
2023-04-08T14:58:56.894Z,13.40
2023-04-08T15:01:26.272Z,14.50
2023-04-08T15:03:55.025Z,13.70
2023-04-08T15:06:24.055Z,13.20
2023-04-08T15:08:53.370Z,13.40
2023-04-08T15:11:22.370Z,12.80
2023-04-08T15:13:51.025Z,14.80
2023-04-08T15:16:20.113Z,15.40
2023-04-08T15:18:49.192Z,17.20
2023-04-08T15:21:18.611Z,18.80
2023-04-08T15:23:47.609Z,13.00
2023-04-08T15:26:16.821Z,14.10
2023-04-08T15:28:45.592Z,14.80
2023-04-08T15:31:14.440Z,14.90
2023-04-08T15:33:45.175Z,14.30
2023-04-08T15:36:20.035Z,14.30
2023-04-08T15:38:48.811Z,17.30
2023-04-08T15:41:18.983Z,14.80
2023-04-08T15:43:48.349Z,14.30
2023-04-08T15:46:19.793Z,12.50
2023-04-08T15:48:49.161Z,14.90
2023-04-08T15:51:18.328Z,22.70
2023-04-08T15:53:48.351Z,18.00
2023-04-08T15:56:18.432Z,18.40
2023-04-08T15:58:47.223Z,19.60
2023-04-08T16:01:17.700Z,13.80
2023-04-08T16:03:47.031Z,19.90
2023-04-08T16:06:16.065Z,16.40
2023-04-08T16:08:47.147Z,16.90
2023-04-08T16:11:15.761Z,20.40
2023-04-08T16:13:44.452Z,18.80
2023-04-08T16:16:16.584Z,18.30
2023-04-08T16:18:47.982Z,16.50
2023-04-08T16:21:18.803Z,17.60
2023-04-08T16:23:47.482Z,18.00
2023-04-08T16:26:16.682Z,14.80
2023-04-08T16:28:45.487Z,15.60
2023-04-08T16:31:14.292Z,15.60
2023-04-08T16:33:43.185Z,15.30
2023-04-08T16:36:13.418Z,16.00
2023-04-08T16:38:42.794Z,15.50
2023-04-08T16:41:11.464Z,15.00
2023-04-08T16:43:40.470Z,15.90
2023-04-08T16:46:13.634Z,14.60
2023-04-08T16:48:44.299Z,15.40
2023-04-08T16:51:13.104Z,15.10
2023-04-08T16:53:41.966Z,16.90
2023-04-08T16:56:15.122Z,15.10
2023-04-08T16:58:44.371Z,17.90
2023-04-08T17:01:14.603Z,17.40
2023-04-08T17:03:43.594Z,17.70
2023-04-08T17:06:33.765Z,17.00
2023-04-08T17:09:04.430Z,17.30
2023-04-08T17:11:33.303Z,15.20
2023-04-08T17:14:02.479Z,15.90
2023-04-08T17:16:31.880Z,17.90
2023-04-08T17:19:01.292Z,15.50
2023-04-08T17:21:32.935Z,17.90
2023-04-08T17:24:02.447Z,17.10
2023-04-08T17:26:33.284Z,16.50
2023-04-08T17:29:02.590Z,15.30
2023-04-08T17:31:32.131Z,18.50
2023-04-08T17:34:01.612Z,16.50
2023-04-08T17:36:31.795Z,19.90
2023-04-08T17:39:02.487Z,13.40
2023-04-08T17:41:39.760Z,16.70
2023-04-08T17:44:17.737Z,19.20
2023-04-08T17:46:46.523Z,16.00
2023-04-08T17:49:16.734Z,18.60
2023-04-08T17:51:45.656Z,16.80
2023-04-08T17:54:17.118Z,17.20
2023-04-08T17:56:49.029Z,17.90
2023-04-08T17:59:18.641Z,14.40
2023-04-08T18:01:48.231Z,15.70
2023-04-08T18:04:17.549Z,15.60
2023-04-08T18:06:46.887Z,15.40
2023-04-08T18:09:16.406Z,16.60
2023-04-08T18:11:50.404Z,17.80
2023-04-08T18:14:21.091Z,18.40
2023-04-08T18:16:50.020Z,19.00
2023-04-08T18:19:19.927Z,19.20
2023-04-08T18:21:48.799Z,21.50
2023-04-08T18:24:18.229Z,23.30
2023-04-08T18:26:51.680Z,23.80
2023-04-08T18:29:24.837Z,26.40
2023-04-08T18:31:54.602Z,24.50
2023-04-08T18:34:25.178Z,21.70
2023-04-08T18:36:54.806Z,26.30
2023-04-08T18:39:23.938Z,24.20
2023-04-08T18:41:54.670Z,25.80
2023-04-08T18:44:24.821Z,24.40
2023-04-08T18:46:53.810Z,24.30
2023-04-08T18:49:22.823Z,23.30
2023-04-08T18:52:01.390Z,31.80
2023-04-08T18:54:32.354Z,34.80
2023-04-08T18:57:02.752Z,29.30
2023-04-08T18:59:32.799Z,26.90
2023-04-08T19:02:02.245Z,30.90
2023-04-08T19:04:33.769Z,28.20
2023-04-08T19:07:03.410Z,22.90
2023-04-08T19:09:33.343Z,24.20
2023-04-08T19:12:02.720Z,29.70
2023-04-08T19:14:31.536Z,25.10
2023-04-08T19:17:00.325Z,24.20
2023-04-08T19:19:29.014Z,28.60
2023-04-08T19:21:57.918Z,27.20
2023-04-08T19:24:26.885Z,25.70
2023-04-08T19:26:56.187Z,25.50
2023-04-08T19:29:25.067Z,27.30
2023-04-08T19:31:54.177Z,27.50
2023-04-08T19:34:22.982Z,29.30
2023-04-08T19:36:52.373Z,31.30
2023-04-08T19:39:23.029Z,29.50
2023-04-08T19:41:53.016Z,28.10
2023-04-08T19:44:22.944Z,30.80
2023-04-08T19:46:52.272Z,25.40
2023-04-08T19:49:22.231Z,28.90
2023-04-08T19:51:52.284Z,25.90
2023-04-08T19:54:21.063Z,28.10
2023-04-08T19:56:49.959Z,28.90
2023-04-08T19:59:20.081Z,25.80
2023-04-08T20:01:48.822Z,22.50
2023-04-08T20:04:22.287Z,28.40
2023-04-08T20:06:52.043Z,28.40
2023-04-08T20:09:23.925Z,28.10
2023-04-08T20:11:52.954Z,29.80
2023-04-08T20:14:21.830Z,27.30
2023-04-08T20:16:51.114Z,25.60
2023-04-08T20:19:20.092Z,26.00
2023-04-08T20:21:49.798Z,28.20
2023-04-08T20:24:18.907Z,28.40
2023-04-08T20:26:48.209Z,27.60
2023-04-08T20:29:16.990Z,28.30
2023-04-08T20:31:46.363Z,29.00
2023-04-08T20:34:15.189Z,30.80
2023-04-08T20:36:44.190Z,24.40
2023-04-08T20:39:14.142Z,28.50
2023-04-08T20:41:42.920Z,19.60
2023-04-08T20:44:12.370Z,32.30
2023-04-08T20:46:41.600Z,28.20
2023-04-08T20:49:10.356Z,29.70
2023-04-08T20:51:39.756Z,30.40
2023-04-08T20:54:08.871Z,29.10
2023-04-08T20:56:37.450Z,26.40
2023-04-08T20:59:06.749Z,31.60
2023-04-08T21:01:35.675Z,32.40
2023-04-08T21:04:06.890Z,31.70
2023-04-08T21:06:38.117Z,28.40
2023-04-08T21:09:08.151Z,31.10
2023-04-08T21:11:37.241Z,28.40
2023-04-08T21:14:07.118Z,26.90
2023-04-08T21:16:36.483Z,37.60
2023-04-08T21:19:05.671Z,33.10
2023-04-08T21:21:34.840Z,32.90
2023-04-08T21:24:04.988Z,31.80
2023-04-08T21:26:33.630Z,33.10
2023-04-08T21:29:02.281Z,29.20
2023-04-08T21:31:31.363Z,34.90
2023-04-08T21:34:00.444Z,33.00
2023-04-08T21:36:31.188Z,34.60
2023-04-08T21:38:59.952Z,32.60
2023-04-08T21:41:30.433Z,32.80
2023-04-08T21:43:59.709Z,33.50
2023-04-08T21:46:28.608Z,30.30
2023-04-08T21:48:57.564Z,29.20
2023-04-08T21:51:27.083Z,28.70
2023-04-08T21:53:56.060Z,38.70
2023-04-08T21:56:25.043Z,32.40
2023-04-08T21:58:54.964Z,34.80
2023-04-08T22:01:23.772Z,32.20
2023-04-08T22:03:54.384Z,33.00
2023-04-08T22:06:32.119Z,31.00
2023-04-08T22:09:01.546Z,38.00
2023-04-08T22:11:30.492Z,36.90
2023-04-08T22:13:59.175Z,32.80
2023-04-08T22:16:29.317Z,34.60
2023-04-08T22:18:58.948Z,30.20
2023-04-08T22:21:28.907Z,26.80
2023-04-08T22:23:57.474Z,31.70
2023-04-08T22:26:27.702Z,30.10
2023-04-08T22:28:56.382Z,34.80
2023-04-08T22:31:25.237Z,34.40
2023-04-08T22:33:54.205Z,33.90
2023-04-08T22:36:23.217Z,33.00
2023-04-08T22:38:52.207Z,36.40
2023-04-08T22:41:22.384Z,30.20
2023-04-08T22:43:51.406Z,32.20
2023-04-08T22:46:20.609Z,31.00
2023-04-08T22:48:50.093Z,34.20
2023-04-08T22:51:19.268Z,32.70
2023-04-08T22:53:47.947Z,32.40
2023-04-08T22:56:16.659Z,34.50
2023-04-08T22:58:45.431Z,34.50
2023-04-08T23:01:17.471Z,37.80
2023-04-08T23:03:46.117Z,30.50
2023-04-08T23:06:14.868Z,31.90
2023-04-08T23:08:43.549Z,31.50
2023-04-08T23:11:12.637Z,30.60
2023-04-08T23:13:41.431Z,37.60
2023-04-08T23:16:10.633Z,34.50
2023-04-08T23:18:39.430Z,35.90
2023-04-08T23:21:08.221Z,32.00
2023-04-08T23:23:36.886Z,34.50
2023-04-08T23:26:05.879Z,33.60
2023-04-08T23:28:34.343Z,30.10
2023-04-08T23:31:05.507Z,31.60
2023-04-08T23:33:34.078Z,36.60
2023-04-08T23:36:10.536Z,33.90
2023-04-08T23:38:39.537Z,31.90
2023-04-08T23:41:08.366Z,37.90
2023-04-08T23:43:37.289Z,32.80
2023-04-08T23:46:05.936Z,34.20
2023-04-08T23:48:34.511Z,29.40
2023-04-08T23:51:03.289Z,34.30
2023-04-08T23:53:31.904Z,30.10
2023-04-08T23:56:07.497Z,27.90
2023-04-08T23:58:36.622Z,33.50
